createdAt,value
2022-12-20T00:01:22.576Z,5.38
2022-12-20T00:03:51.337Z,6.35
2022-12-20T00:06:18.874Z,7.25
2022-12-20T00:08:45.942Z,5.43
2022-12-20T00:11:13.485Z,4.82
2022-12-20T00:13:40.018Z,4.43
2022-12-20T00:16:08.938Z,4.45
2022-12-20T00:18:36.678Z,6.65
2022-12-20T00:21:04.730Z,4.20
2022-12-20T00:23:31.209Z,10.73
2022-12-20T00:26:05.947Z,7.47
2022-12-20T00:28:34.510Z,5.53
2022-12-20T00:33:29.245Z,10.45
2022-12-20T00:35:56.829Z,5.10
2022-12-20T00:38:24.553Z,7.83
2022-12-20T00:41:06.435Z,3.73
2022-12-20T00:43:34.136Z,4.75
2022-12-20T00:46:01.391Z,5.93
2022-12-20T00:48:28.927Z,6.07
2022-12-20T00:51:00.581Z,5.03
2022-12-20T00:53:28.395Z,7.55
2022-12-20T00:55:54.893Z,5.30
2022-12-20T00:58:21.609Z,5.43
2022-12-20T01:00:54.091Z,5.68
2022-12-20T01:03:23.024Z,5.97
2022-12-20T01:05:54.834Z,4.50
2022-12-20T01:08:22.209Z,5.68
2022-12-20T01:11:06.980Z,3.70
2022-12-20T01:13:35.480Z,5.45
2022-12-20T01:16:10.496Z,3.60
2022-12-20T01:18:37.038Z,3.58
2022-12-20T01:21:05.902Z,4.00
2022-12-20T01:23:32.381Z,3.70
2022-12-20T01:26:04.859Z,7.55
2022-12-20T01:28:32.394Z,9.15
2022-12-20T01:30:58.960Z,3.63
2022-12-20T01:33:25.364Z,5.45
2022-12-20T01:36:00.472Z,5.85
2022-12-20T01:38:28.232Z,5.28
2022-12-20T01:40:55.821Z,5.83
2022-12-20T01:43:22.660Z,3.90
2022-12-20T01:45:49.153Z,4.20
2022-12-20T01:48:19.903Z,4.22
2022-12-20T01:50:48.115Z,3.55
2022-12-20T01:53:16.531Z,5.28
2022-12-20T01:55:43.015Z,5.10
2022-12-20T01:58:13.097Z,4.47
2022-12-20T02:00:39.655Z,4.15
2022-12-20T02:03:11.853Z,3.60
2022-12-20T02:05:42.300Z,6.72
2022-12-20T02:08:10.561Z,4.15
2022-12-20T02:11:17.719Z,6.22
2022-12-20T02:14:03.414Z,4.93
2022-12-20T02:16:36.469Z,5.32
2022-12-20T02:19:39.913Z,5.30
2022-12-20T02:22:40.941Z,5.05
2022-12-20T02:25:44.202Z,5.38
2022-12-20T02:28:47.652Z,6.40
2022-12-20T02:31:18.823Z,6.25
2022-12-20T02:33:49.368Z,7.25
2022-12-20T02:36:19.203Z,5.72
2022-12-20T02:38:45.846Z,5.35
2022-12-20T02:41:23.684Z,4.35
2022-12-20T02:44:13.816Z,4.55
2022-12-20T02:46:41.576Z,6.47
2022-12-20T02:49:13.939Z,6.03
2022-12-20T02:51:44.030Z,3.83
2022-12-20T02:54:12.355Z,4.75
2022-12-20T02:56:46.427Z,6.10
2022-12-20T02:59:24.828Z,4.55
2022-12-20T03:01:55.070Z,4.53
2022-12-20T03:04:26.367Z,6.30
2022-12-20T03:07:07.548Z,4.72
2022-12-20T03:09:38.513Z,4.78
2022-12-20T03:12:06.276Z,6.20
2022-12-20T03:14:32.724Z,5.30
2022-12-20T03:16:59.294Z,4.90
2022-12-20T03:19:25.760Z,5.20
2022-12-20T03:21:52.426Z,6.50
2022-12-20T03:24:21.576Z,6.30
2022-12-20T03:26:48.139Z,5.28
2022-12-20T03:29:14.622Z,7.05
2022-12-20T03:31:41.035Z,6.13
2022-12-20T03:34:07.632Z,5.75
2022-12-20T03:36:34.537Z,4.40
2022-12-20T03:39:01.126Z,4.85
2022-12-20T03:41:27.853Z,7.93
2022-12-20T03:43:54.432Z,7.05
2022-12-20T03:46:20.990Z,5.85
2022-12-20T03:48:47.390Z,7.70
2022-12-20T03:51:13.787Z,4.45
2022-12-20T03:53:40.129Z,6.88
2022-12-20T03:56:06.757Z,5.20
2022-12-20T03:58:33.292Z,5.90
2022-12-20T04:00:59.859Z,5.57
2022-12-20T04:03:26.604Z,8.27
2022-12-20T04:05:53.064Z,5.75
2022-12-20T04:08:19.617Z,9.90
2022-12-20T04:11:04.612Z,4.47
2022-12-20T04:13:30.976Z,4.70
2022-12-20T04:16:00.608Z,4.28
2022-12-20T04:18:27.495Z,7.28
2022-12-20T04:20:54.159Z,6.35
2022-12-20T04:23:20.605Z,6.38
2022-12-20T04:25:46.985Z,4.32
2022-12-20T04:28:13.986Z,9.52
2022-12-20T04:30:40.511Z,5.43
2022-12-20T04:33:06.889Z,4.38
2022-12-20T04:35:33.624Z,5.63
2022-12-20T04:37:59.936Z,6.88
2022-12-20T04:40:26.478Z,5.60
2022-12-20T04:42:52.944Z,6.35
2022-12-20T04:45:19.320Z,4.38
2022-12-20T04:47:45.734Z,4.00
2022-12-20T04:50:12.240Z,7.75
2022-12-20T04:52:57.258Z,4.72
2022-12-20T04:55:23.652Z,5.75
2022-12-20T04:57:50.027Z,9.15
2022-12-20T05:00:18.506Z,7.80
2022-12-20T05:02:44.966Z,9.27
2022-12-20T05:05:11.453Z,5.78
2022-12-20T05:07:38.202Z,4.55
2022-12-20T05:10:04.999Z,7.75
2022-12-20T05:12:31.534Z,8.50
2022-12-20T05:14:57.939Z,5.38
2022-12-20T05:17:24.309Z,7.32
2022-12-20T05:19:52.483Z,5.38
2022-12-20T05:22:37.214Z,6.43
2022-12-20T05:25:22.242Z,7.32
2022-12-20T05:27:48.609Z,10.85
2022-12-20T05:30:16.072Z,8.55
2022-12-20T05:32:42.607Z,7.15
2022-12-20T05:35:09.336Z,6.60
2022-12-20T05:37:35.714Z,6.82
2022-12-20T05:40:02.065Z,5.65
2022-12-20T05:42:28.409Z,5.68
2022-12-20T05:44:54.931Z,6.00
2022-12-20T05:47:21.375Z,6.07
2022-12-20T05:49:47.928Z,8.50
2022-12-20T05:52:14.424Z,6.57
2022-12-20T05:54:41.030Z,6.65
2022-12-20T05:57:07.383Z,7.05
2022-12-20T05:59:33.749Z,8.32
2022-12-20T06:02:00.170Z,6.30
2022-12-20T06:04:27.038Z,4.60
2022-12-20T06:06:53.380Z,5.22
2022-12-20T06:09:19.898Z,4.32
2022-12-20T06:11:47.486Z,6.53
2022-12-20T06:14:13.810Z,6.25
2022-12-20T06:16:40.215Z,12.13
2022-12-20T06:19:06.647Z,4.95
2022-12-20T06:21:33.728Z,6.80
2022-12-20T06:24:01.739Z,4.78
2022-12-20T06:26:29.456Z,5.95
2022-12-20T06:28:57.092Z,7.77
2022-12-20T06:31:23.528Z,5.70
2022-12-20T06:33:49.863Z,5.57
2022-12-20T06:36:16.305Z,8.57
2022-12-20T06:38:42.610Z,4.43
2022-12-20T06:41:09.005Z,8.10
2022-12-20T06:43:35.345Z,4.47
2022-12-20T06:46:01.730Z,3.78
2022-12-20T06:48:28.457Z,5.93
2022-12-20T06:50:56.363Z,8.02
2022-12-20T06:53:22.890Z,7.40
2022-12-20T06:55:50.606Z,4.65
2022-12-20T06:58:18.308Z,4.70
2022-12-20T07:00:45.293Z,6.40
2022-12-20T07:03:11.919Z,6.88
2022-12-20T07:05:38.360Z,7.65
2022-12-20T07:08:05.323Z,4.95
2022-12-20T07:10:34.284Z,5.05
2022-12-20T07:13:00.585Z,5.05
2022-12-20T07:15:26.978Z,5.25
2022-12-20T07:17:53.339Z,4.43
2022-12-20T07:20:19.911Z,3.47
2022-12-20T07:22:49.626Z,5.05
2022-12-20T07:25:16.131Z,4.88
2022-12-20T07:27:42.635Z,4.57
2022-12-20T07:30:10.436Z,3.97
2022-12-20T07:32:37.451Z,5.45
2022-12-20T07:35:04.080Z,6.07
2022-12-20T07:37:30.544Z,6.55
2022-12-20T07:39:57.240Z,4.00
2022-12-20T07:42:23.576Z,9.88
2022-12-20T07:44:50.527Z,6.40
2022-12-20T07:47:16.833Z,4.32
2022-12-20T07:49:43.322Z,6.40
2022-12-20T07:52:13.903Z,6.95
2022-12-20T07:54:48.481Z,6.07
2022-12-20T07:57:48.367Z,2.90
2022-12-20T08:00:15.831Z,6.75
2022-12-20T08:03:14.736Z,6.60
2022-12-20T08:05:44.202Z,4.85
2022-12-20T08:08:10.677Z,8.75
2022-12-20T08:10:38.665Z,4.28
2022-12-20T08:13:06.174Z,5.28
2022-12-20T08:15:34.835Z,5.97
2022-12-20T08:20:27.604Z,7.10
2022-12-20T08:22:54.030Z,5.22
2022-12-20T08:25:21.688Z,5.00
2022-12-20T08:27:48.050Z,4.93
2022-12-20T08:30:14.745Z,6.38
2022-12-20T08:32:41.392Z,4.43
2022-12-20T08:35:08.281Z,3.88
2022-12-20T08:37:34.740Z,10.82
2022-12-20T08:40:01.116Z,4.20
2022-12-20T08:42:28.476Z,4.40
2022-12-20T08:44:55.713Z,6.15
2022-12-20T08:47:22.101Z,6.07
2022-12-20T08:49:48.424Z,5.85
2022-12-20T08:52:15.117Z,4.57
2022-12-20T08:54:41.462Z,3.60
2022-12-20T08:57:08.724Z,4.75
2022-12-20T08:59:35.054Z,5.43
2022-12-20T09:02:01.799Z,9.82
2022-12-20T09:04:28.197Z,5.00
2022-12-20T09:06:54.785Z,4.30
2022-12-20T09:09:21.185Z,8.48
2022-12-20T09:11:47.717Z,6.25
2022-12-20T09:14:14.144Z,6.65
2022-12-20T09:16:40.522Z,4.65
2022-12-20T09:19:07.108Z,5.22
2022-12-20T09:21:34.861Z,4.15
2022-12-20T09:24:01.512Z,6.65
2022-12-20T09:26:27.942Z,5.90
2022-12-20T09:28:54.535Z,4.15
2022-12-20T09:31:26.247Z,3.85
2022-12-20T09:33:57.893Z,3.13
2022-12-20T09:36:25.590Z,3.45
2022-12-20T09:38:52.293Z,4.43
2022-12-20T09:41:39.667Z,4.50
2022-12-20T09:44:24.072Z,5.22
2022-12-20T09:47:01.373Z,8.43
2022-12-20T09:49:36.463Z,5.75
2022-12-20T09:52:24.501Z,5.97
2022-12-20T09:55:00.477Z,6.13
2022-12-20T09:57:54.835Z,5.63
2022-12-20T10:00:21.638Z,3.47
2022-12-20T10:03:06.080Z,5.15
2022-12-20T10:05:45.847Z,4.93
2022-12-20T10:08:41.907Z,4.60
2022-12-20T10:11:41.947Z,5.07
2022-12-20T10:14:24.927Z,3.85
2022-12-20T10:16:58.488Z,6.47
2022-12-20T10:19:48.388Z,5.60
2022-12-20T10:22:21.563Z,6.07
2022-12-20T10:25:25.824Z,8.30
2022-12-20T10:27:57.146Z,4.93
2022-12-20T10:30:27.012Z,4.35
2022-12-20T10:32:55.868Z,6.88
2022-12-20T10:35:33.896Z,2.72
2022-12-20T10:38:09.577Z,7.75
2022-12-20T10:41:23.806Z,7.28
2022-12-20T10:43:45.556Z,6.32
2022-12-20T10:46:15.073Z,3.65
2022-12-20T10:48:43.593Z,6.25
2022-12-20T10:51:15.486Z,6.45
2022-12-20T10:53:56.566Z,4.68
2022-12-20T10:56:36.299Z,3.33
2022-12-20T10:59:17.765Z,5.03
2022-12-20T11:01:47.050Z,4.32
2022-12-20T11:04:33.856Z,4.93
2022-12-20T11:07:02.854Z,5.40
2022-12-20T11:09:36.589Z,5.13
2022-12-20T11:12:13.764Z,3.65
2022-12-20T11:14:41.969Z,6.20
2022-12-20T11:17:11.549Z,4.40
2022-12-20T11:19:58.326Z,5.88
2022-12-20T11:22:30.497Z,4.75
2022-12-20T11:25:03.027Z,5.85
2022-12-20T11:27:32.514Z,4.85
2022-12-20T11:30:13.419Z,8.93
2022-12-20T11:33:13.217Z,6.13
2022-12-20T11:36:03.175Z,6.05
2022-12-20T11:38:41.610Z,2.95
2022-12-20T11:41:32.848Z,4.32
2022-12-20T11:44:33.731Z,3.50
2022-12-20T11:47:15.536Z,4.65
2022-12-20T11:50:12.384Z,8.93
2022-12-20T11:53:08.256Z,3.85
2022-12-20T11:55:41.663Z,4.53
2022-12-20T11:58:21.648Z,4.65
2022-12-20T12:00:58.979Z,2.70
2022-12-20T12:03:35.411Z,4.03
2022-12-20T12:06:10.634Z,4.15
2022-12-20T12:08:43.900Z,6.13
2022-12-20T12:14:18.121Z,3.50
2022-12-20T12:16:51.115Z,3.20
2022-12-20T12:19:17.803Z,5.03
2022-12-20T12:21:55.608Z,9.75
2022-12-20T12:24:29.287Z,3.40
2022-12-20T12:26:59.663Z,4.65
2022-12-20T12:29:30.171Z,5.45
2022-12-20T12:32:14.627Z,5.38
2022-12-20T12:34:50.120Z,5.28
2022-12-20T12:37:39.760Z,6.35
2022-12-20T12:40:25.046Z,2.65
2022-12-20T12:43:21.781Z,6.20
2022-12-20T12:45:57.811Z,6.30
2022-12-20T12:48:42.478Z,3.58
2022-12-20T12:51:10.779Z,4.22
2022-12-20T12:53:51.339Z,4.70
2022-12-20T12:56:43.109Z,4.20
2022-12-20T12:59:13.050Z,4.85
2022-12-20T13:01:56.797Z,5.93
2022-12-20T13:04:27.372Z,7.35
2022-12-20T13:06:56.926Z,5.80
2022-12-20T13:09:26.336Z,5.55
2022-12-20T13:12:01.353Z,4.88
2022-12-20T13:14:31.167Z,6.00
2022-12-20T13:17:20.719Z,6.47
2022-12-20T13:19:57.707Z,4.22
2022-12-20T13:22:26.487Z,3.53
2022-12-20T13:25:03.025Z,3.85
2022-12-20T13:27:37.170Z,4.57
2022-12-20T13:30:13.724Z,7.63
2022-12-20T13:32:49.522Z,5.18
2022-12-20T13:35:25.108Z,4.78
2022-12-20T13:38:07.516Z,3.13
2022-12-20T13:40:39.394Z,6.63
2022-12-20T13:43:14.281Z,5.70
2022-12-20T13:45:46.351Z,5.55
2022-12-20T13:48:17.960Z,10.18
2022-12-20T13:50:52.241Z,4.20
2022-12-20T13:53:27.643Z,8.48
2022-12-20T13:55:55.088Z,4.78
2022-12-20T13:58:25.437Z,6.00
2022-12-20T14:00:54.341Z,5.05
2022-12-20T14:03:25.166Z,3.35
2022-12-20T14:06:04.051Z,4.88
2022-12-20T14:08:37.044Z,6.53
2022-12-20T14:11:46.212Z,4.15
2022-12-20T14:14:14.064Z,7.65
2022-12-20T14:16:40.535Z,3.35
2022-12-20T14:19:14.759Z,4.10
2022-12-20T14:21:43.664Z,7.30
2022-12-20T14:24:17.463Z,4.90
2022-12-20T14:26:51.401Z,4.82
2022-12-20T14:29:23.344Z,4.80
2022-12-20T14:31:51.502Z,9.07
2022-12-20T14:34:38.108Z,4.95
2022-12-20T14:37:19.724Z,4.40
2022-12-20T14:40:19.235Z,3.80
2022-12-20T14:42:53.254Z,4.18
2022-12-20T14:45:23.485Z,4.00
2022-12-20T14:47:55.984Z,5.28
2022-12-20T14:50:33.137Z,6.35
2022-12-20T14:53:00.209Z,3.45
2022-12-20T14:55:36.448Z,6.65
2022-12-20T14:58:22.971Z,5.97
2022-12-20T15:00:58.839Z,3.42
2022-12-20T15:03:25.913Z,7.03
2022-12-20T15:06:00.102Z,5.82
2022-12-20T15:08:33.071Z,8.05
2022-12-20T15:11:22.451Z,5.93
2022-12-20T15:13:54.423Z,5.45
2022-12-20T15:16:23.973Z,7.80
2022-12-20T15:18:53.306Z,6.50
2022-12-20T15:21:32.544Z,6.45
2022-12-20T15:24:02.155Z,7.38
2022-12-20T15:26:32.039Z,6.97
2022-12-20T15:28:58.460Z,6.15
2022-12-20T15:31:32.986Z,9.70
2022-12-20T15:34:06.727Z,9.02
2022-12-20T15:36:33.971Z,6.40
2022-12-20T15:39:12.395Z,5.47
2022-12-20T15:41:42.794Z,9.20
2022-12-20T15:44:19.928Z,9.25
2022-12-20T15:46:46.622Z,8.13
2022-12-20T15:49:16.075Z,9.88
2022-12-20T15:51:44.424Z,9.55
2022-12-20T15:54:27.863Z,8.82
2022-12-20T15:56:55.883Z,6.07
2022-12-20T15:59:58.436Z,5.43
2022-12-20T16:02:22.841Z,7.32
2022-12-20T16:04:50.500Z,6.90
2022-12-20T16:07:17.012Z,7.22
2022-12-20T16:09:43.511Z,6.22
2022-12-20T16:12:16.158Z,7.35
2022-12-20T16:14:42.520Z,9.27
2022-12-20T16:17:14.377Z,6.35
2022-12-20T16:19:42.365Z,9.07
2022-12-20T16:22:15.913Z,10.52
2022-12-20T16:24:43.574Z,9.18
2022-12-20T16:27:10.142Z,7.10
2022-12-20T16:29:36.769Z,8.52
2022-12-20T16:32:08.131Z,6.70
2022-12-20T16:34:34.455Z,8.40
2022-12-20T16:37:00.920Z,6.13
2022-12-20T16:39:27.445Z,5.13
2022-12-20T16:41:54.940Z,6.72
2022-12-20T16:44:22.933Z,7.20
2022-12-20T16:46:49.412Z,5.10
2022-12-20T16:49:20.433Z,20.33
2022-12-20T16:51:49.072Z,16.58
2022-12-20T16:54:22.340Z,9.48
2022-12-20T16:56:55.281Z,34.78
2022-12-20T16:59:25.484Z,23.00
2022-12-20T17:01:54.397Z,13.68
2022-12-20T17:04:21.613Z,11.80
2022-12-20T17:06:48.973Z,16.58
2022-12-20T17:12:00.136Z,24.10
2022-12-20T17:14:26.654Z,24.23
2022-12-20T17:16:53.249Z,38.70
2022-12-20T17:19:19.680Z,34.83
2022-12-20T17:24:32.858Z,13.77
2022-12-20T17:27:00.501Z,9.02
2022-12-20T17:29:27.077Z,7.70
2022-12-20T17:31:54.287Z,8.85
2022-12-20T17:34:24.130Z,7.20
2022-12-20T17:36:53.233Z,7.60
2022-12-20T17:39:20.262Z,6.47
2022-12-20T17:41:47.806Z,5.90
2022-12-20T17:44:23.681Z,10.50
2022-12-20T17:46:50.269Z,8.13
2022-12-20T17:49:17.158Z,12.05
2022-12-20T17:51:44.032Z,9.98
2022-12-20T17:54:18.674Z,11.18
2022-12-20T17:56:45.094Z,8.75
2022-12-20T17:59:12.700Z,10.90
2022-12-20T18:01:40.002Z,11.00
2022-12-20T18:04:09.721Z,12.82
2022-12-20T18:06:39.879Z,10.23
2022-12-20T18:09:15.789Z,11.35
2022-12-20T18:11:43.450Z,21.05
2022-12-20T18:14:10.698Z,11.27
2022-12-20T18:16:39.291Z,12.00
2022-12-20T18:19:07.066Z,14.15
2022-12-20T18:21:33.660Z,12.27
2022-12-20T18:24:00.182Z,17.95
2022-12-20T18:26:29.627Z,10.70
2022-12-20T18:28:58.381Z,11.75
2022-12-20T18:31:28.357Z,15.70
2022-12-20T18:33:58.413Z,13.88
2022-12-20T18:36:30.689Z,9.57
2022-12-20T18:38:58.753Z,9.43
2022-12-20T18:41:28.130Z,12.40
2022-12-20T18:44:00.169Z,12.15
2022-12-20T18:46:27.314Z,8.50
2022-12-20T18:48:56.041Z,8.52
2022-12-20T18:53:55.115Z,5.80
2022-12-20T18:56:28.723Z,6.80
2022-12-20T18:59:04.549Z,9.20
2022-12-20T19:01:37.241Z,10.82
2022-12-20T19:04:06.395Z,8.10
2022-12-20T19:06:33.386Z,8.10
2022-12-20T19:09:03.969Z,7.50
2022-12-20T19:11:30.408Z,8.20
2022-12-20T19:13:56.915Z,7.43
2022-12-20T19:16:32.526Z,6.47
2022-12-20T19:19:00.468Z,9.05
2022-12-20T19:21:29.222Z,8.40
2022-12-20T19:23:59.639Z,8.15
2022-12-20T19:26:29.767Z,7.63
2022-12-20T19:28:57.228Z,8.70
2022-12-20T19:31:27.771Z,9.00
2022-12-20T19:34:00.601Z,8.52
2022-12-20T19:36:34.538Z,10.43
2022-12-20T19:39:04.707Z,12.90
2022-12-20T19:41:33.396Z,7.75
2022-12-20T19:44:00.141Z,7.30
2022-12-20T19:46:29.611Z,7.10
2022-12-20T19:48:58.078Z,9.90
2022-12-20T19:51:25.818Z,7.13
2022-12-20T19:53:54.643Z,7.00
2022-12-20T19:58:49.869Z,7.65
2022-12-20T20:01:17.895Z,8.23
2022-12-20T20:03:45.553Z,8.00
2022-12-20T20:06:12.836Z,10.70
2022-12-20T20:08:40.506Z,6.35
2022-12-20T20:11:09.839Z,8.33
2022-12-20T20:13:38.084Z,8.90
2022-12-20T20:16:06.846Z,13.95
2022-12-20T20:18:35.082Z,8.35
2022-12-20T20:21:12.467Z,8.80
2022-12-20T20:23:38.986Z,6.80
2022-12-20T20:26:11.086Z,7.18
2022-12-20T20:28:44.479Z,7.68
2022-12-20T20:31:13.537Z,6.50
2022-12-20T20:33:40.246Z,10.68
2022-12-20T20:36:06.987Z,8.65
2022-12-20T20:38:35.637Z,9.23
2022-12-20T20:43:29.600Z,7.82
2022-12-20T20:45:56.894Z,8.70
2022-12-20T20:48:23.689Z,8.95
2022-12-20T20:50:50.240Z,12.05
2022-12-20T20:53:16.580Z,7.93
2022-12-20T20:55:43.099Z,10.27
2022-12-20T20:58:12.282Z,10.32
2022-12-20T21:00:40.347Z,8.75
2022-12-20T21:03:06.882Z,10.02
2022-12-20T21:08:21.773Z,8.52
2022-12-20T21:10:49.365Z,8.30
2022-12-20T21:13:17.732Z,9.03
2022-12-20T21:15:46.535Z,10.43
2022-12-20T21:18:13.818Z,12.35
2022-12-20T21:20:40.294Z,6.20
2022-12-20T21:23:06.828Z,8.13
2022-12-20T21:25:33.195Z,6.43
2022-12-20T21:27:59.581Z,7.30
2022-12-20T21:30:26.052Z,5.78
2022-12-20T21:32:52.412Z,7.57
2022-12-20T21:35:18.810Z,5.85
2022-12-20T21:37:45.216Z,6.22
2022-12-20T21:40:12.102Z,4.82
2022-12-20T21:42:38.492Z,4.25
2022-12-20T21:45:07.648Z,5.80
2022-12-20T21:47:35.268Z,6.80
2022-12-20T21:50:01.766Z,7.00
2022-12-20T21:52:28.545Z,6.72
2022-12-20T21:54:54.903Z,7.07
2022-12-20T21:57:21.376Z,6.22
2022-12-20T21:59:47.758Z,6.25
2022-12-20T22:02:14.424Z,5.82
2022-12-20T22:04:40.818Z,6.70
2022-12-20T22:07:07.357Z,8.30
2022-12-20T22:09:33.778Z,8.48
2022-12-20T22:12:00.200Z,8.68
2022-12-20T22:14:26.553Z,9.63
2022-12-20T22:16:54.833Z,10.13
2022-12-20T22:19:21.595Z,10.88
2022-12-20T22:21:53.696Z,9.88
2022-12-20T22:24:24.136Z,9.23
2022-12-20T22:26:50.769Z,12.23
2022-12-20T22:29:17.138Z,11.02
2022-12-20T22:31:43.697Z,11.27
2022-12-20T22:34:10.306Z,11.75
2022-12-20T22:36:37.212Z,9.93
2022-12-20T22:39:03.837Z,13.07
2022-12-20T22:41:33.885Z,11.13
2022-12-20T22:44:00.566Z,12.48
2022-12-20T22:46:29.302Z,13.02
2022-12-20T22:48:56.486Z,11.88
2022-12-20T22:51:27.953Z,14.13
2022-12-20T22:53:54.513Z,12.32
2022-12-20T22:56:22.573Z,12.07
2022-12-20T22:58:50.270Z,12.23
2022-12-20T23:01:19.053Z,13.80
2022-12-20T23:03:46.457Z,13.55
2022-12-20T23:06:15.430Z,15.23
2022-12-20T23:08:42.787Z,15.15
2022-12-20T23:11:36.389Z,16.48
2022-12-20T23:14:22.816Z,15.85
2022-12-20T23:16:49.634Z,16.60
2022-12-20T23:19:16.345Z,17.98
2022-12-20T23:22:01.677Z,20.45
2022-12-20T23:24:28.084Z,18.02
2022-12-20T23:26:54.410Z,15.93
2022-12-20T23:29:20.796Z,13.13
2022-12-20T23:31:47.159Z,14.35
2022-12-20T23:34:13.549Z,11.73
2022-12-20T23:36:41.352Z,9.27
2022-12-20T23:39:08.402Z,8.70
2022-12-20T23:41:39.031Z,8.25
2022-12-20T23:44:06.107Z,9.27
2022-12-20T23:46:33.263Z,12.52
2022-12-20T23:48:59.723Z,14.23
2022-12-20T23:51:26.268Z,16.85
2022-12-20T23:53:52.828Z,18.85
2022-12-20T23:56:21.470Z,20.55
